Anacoco, Louisiana
Current Conditions -  °F | °C
As of 11:56 PM on Friday 31 Oct 2014 (Local Time) from KAQV Reporting Station
Clear Clear  
Wind Chill: 51°   Ceiling: Unl
Heat Index: 51°   Visibility: 10mi
Dew Point: 44°   Wind: 6mph
Humidity: 77%   Direction: 360°N
Pressure: 30.27"   Gusts: NA
Location:  31.25°N, 93.34°W
Report Text: KAQV 010456Z AUTO 36005KT 10SM CLR 11/07 A3027 RMK AO2 SLP250 T01060067
Loading
Personal Weather Stations






























Interactive Weather Map
Tropical Storm Tracking
New forecast layout! Learn more

10-Day Weather Forecast

Advertisements
Track Severe Weather on mobile